NCAR-RAP Real-Time Weather Data

Output produced by METARs form (17 November 2017  17:47 UTC)
found at http://weather.rap.ucar.edu/surface/
 
Conditions at: KPGD observed 17 November 2017  16:53 UTC
Temperature: 25.6°C (78°F)
Dewpoint: 15.6°C (60°F) [RH = 54%]
Pressure (altimeter): 30.09 inches Hg (1019.0 mb)
[Sea-level pressure: 1018.8 mb]
Winds: from the NE (50 degrees) at 9 MPH (8 knots; 4.2 m/s)
Visibility: 10 or more miles (16+ km)
Ceiling: 5500 feet AGL
Clouds: overcast cloud deck at 5500 feet AGL
Present Weather: no significant weather observed at this time
KPGD 171653Z 05008KT 10SM OVC055 26/16 A3009 RMK AO2 SLP188 T02560156

Conditions at: KPGD observed 17 November 2017  15:53 UTC
Temperature: 23.3°C (74°F)
Dewpoint: 14.4°C (58°F) [RH = 57%]
Pressure (altimeter): 30.10 inches Hg (1019.4 mb)
[Sea-level pressure: 1019.3 mb]
Winds: from the NE (50 degrees) at 12 MPH (10 knots; 5.2 m/s)
gusting to 21 MPH (18 knots; 9.4 m/s)
Visibility: 10 or more miles (16+ km)
Ceiling: at least 12,000 feet AGL
Clouds: few clouds at 5000 feet AGL
Present Weather: no significant weather observed at this time
KPGD 171553Z 05010G18KT 10SM FEW050 23/14 A3010 RMK AO2 SLP193 T02330144

Conditions at: KPGD observed 17 November 2017  15:19 UTC
Temperature: 22.2°C (72°F)
Dewpoint: 13.9°C (57°F) [RH = 59%]
Pressure (altimeter): 30.11 inches Hg (1019.7 mb)
Winds: from the ENE (60 degrees) at 13 MPH (11 knots; 5.7 m/s)
Visibility: 10 or more miles (16+ km)
Ceiling: at least 12,000 feet AGL
Clouds: few clouds at 5500 feet AGL
Present Weather: no significant weather observed at this time
KPGD 171519Z 06011KT 10SM FEW055 22/14 A3011 RMK AO2 T02220139

Conditions at: KPGD observed 17 November 2017  14:53 UTC
Temperature: 20.6°C (69°F)
Dewpoint: 13.3°C (56°F) [RH = 63%]
Pressure (altimeter): 30.11 inches Hg (1019.7 mb)
[Sea-level pressure: 1019.7 mb]
Winds: from the NE (40 degrees) at 16 MPH (14 knots; 7.3 m/s)
Visibility: 10 or more miles (16+ km)
Ceiling: 5500 feet AGL
Clouds: overcast cloud deck at 5500 feet AGL
Present Weather: no significant weather observed at this time
KPGD 171453Z 04014KT 10SM OVC055 21/13 A3011 RMK AO2 SLP197 T02060133 51010

Conditions at: KPGD observed 17 November 2017  13:53 UTC
Temperature: 19.4°C (67°F)
Dewpoint: 12.2°C (54°F) [RH = 63%]
Pressure (altimeter): 30.11 inches Hg (1019.7 mb)
[Sea-level pressure: 1019.5 mb]
Winds: from the NNE (30 degrees) at 12 MPH (10 knots; 5.2 m/s)
Visibility: 10 or more miles (16+ km)
Ceiling: at least 12,000 feet AGL
Clouds: few clouds at 5500 feet AGL
Present Weather: no significant weather observed at this time
KPGD 171353Z 03010KT 10SM FEW055 19/12 A3011 RMK AO2 SLP195 T01940122

Conditions at: KPGD observed 17 November 2017  12:53 UTC
Temperature: 17.8°C (64°F)
Dewpoint: 11.7°C (53°F) [RH = 67%]
Pressure (altimeter): 30.10 inches Hg (1019.4 mb)
[Sea-level pressure: 1019.1 mb]
Winds: from the NE (40 degrees) at 10 MPH (9 knots; 4.7 m/s)
Visibility: 10 or more miles (16+ km)
Ceiling: 5000 feet AGL
Clouds: broken clouds at 5000 feet AGL
Present Weather: no significant weather observed at this time
KPGD 171253Z 04009KT 10SM BKN050 18/12 A3010 RMK AO2 SLP191 T01780117

Conditions at: KPGD observed 17 November 2017  11:53 UTC
Temperature: 17.2°C (63°F)
Dewpoint: 11.7°C (53°F) [RH = 70%]
Pressure (altimeter): 30.08 inches Hg (1018.7 mb)
[Sea-level pressure: 1018.6 mb]
Winds: from the NNE (30 degrees) at 9 MPH (8 knots; 4.2 m/s)
Visibility: 10 or more miles (16+ km)
Ceiling: 4200 feet AGL
Clouds: broken clouds at 4200 feet AGL
Present Weather: no significant weather observed at this time
KPGD 171153Z 03008KT 10SM BKN042 17/12 A3008 RMK AO2 SLP186 T01720117 10172 20156 53009

Conditions at: KPGD observed 17 November 2017  10:53 UTC
Temperature: 17.2°C (63°F)
Dewpoint: 12.2°C (54°F) [RH = 72%]
Pressure (altimeter): 30.06 inches Hg (1018.0 mb)
[Sea-level pressure: 1018.0 mb]
Winds: from the NNE (30 degrees) at 9 MPH (8 knots; 4.2 m/s)
Visibility: 10 or more miles (16+ km)
Ceiling: 4100 feet AGL
Clouds: overcast cloud deck at 4100 feet AGL
Present Weather: automated observation with no human augmentation;
there may or may not be significant weather present at this time
KPGD 171053Z AUTO 03008KT 10SM OVC041 17/12 A3006 RMK AO2 SLP180 T01720122

Conditions at: KPGD observed 17 November 2017  09:53 UTC
Temperature: 16.7°C (62°F)
Dewpoint: 13.3°C (56°F) [RH = 80%]
Pressure (altimeter): 30.05 inches Hg (1017.7 mb)
[Sea-level pressure: 1017.6 mb]
Winds: from the NNE (20 degrees) at 9 MPH (8 knots; 4.2 m/s)
Visibility: 10 or more miles (16+ km)
Ceiling: 4100 feet AGL
Clouds: overcast cloud deck at 4100 feet AGL
Present Weather: automated observation with no human augmentation;
there may or may not be significant weather present at this time
KPGD 170953Z AUTO 02008KT 10SM OVC041 17/13 A3005 RMK AO2 SLP176 T01670133

Conditions at: KPGD observed 17 November 2017  08:53 UTC
Temperature: 16.7°C (62°F)
Dewpoint: 13.3°C (56°F) [RH = 80%]
Pressure (altimeter): 30.05 inches Hg (1017.7 mb)
[Sea-level pressure: 1017.7 mb]
Winds: from the NNE (30 degrees) at 10 MPH (9 knots; 4.7 m/s)
Visibility: 10 or more miles (16+ km)
Ceiling: 4000 feet AGL
Clouds: broken clouds at 4000 feet AGL
Present Weather: automated observation with no human augmentation;
there may or may not be significant weather present at this time
KPGD 170853Z AUTO 03009KT 10SM BKN040 17/13 A3005 RMK AO2 SLP177 T01670133 56004

Conditions at: KPGD observed 17 November 2017  07:53 UTC
Temperature: 16.7°C (62°F)
Dewpoint: 13.9°C (57°F) [RH = 84%]
Pressure (altimeter): 30.05 inches Hg (1017.7 mb)
[Sea-level pressure: 1017.7 mb]
Winds: from the NNE (20 degrees) at 7 MPH (6 knots; 3.1 m/s)
Visibility: 10 or more miles (16+ km)
Ceiling: 4300 feet AGL
Clouds: overcast cloud deck at 4300 feet AGL
Present Weather: automated observation with no human augmentation;
there may or may not be significant weather present at this time
KPGD 170753Z AUTO 02006KT 10SM OVC043 17/14 A3005 RMK AO2 SLP177 T01670139

Conditions at: KPGD observed 17 November 2017  06:53 UTC
Temperature: 16.1°C (61°F)
Dewpoint: 13.9°C (57°F) [RH = 87%]
Pressure (altimeter): 30.06 inches Hg (1018.0 mb)
[Sea-level pressure: 1017.8 mb]
Winds: from the NNE (20 degrees) at 5 MPH (4 knots; 2.1 m/s)
Visibility: 10 or more miles (16+ km)
Ceiling: at least 12,000 feet AGL
Clouds: few clouds at 3800 feet AGL
Present Weather: automated observation with no human augmentation;
there may or may not be significant weather present at this time
KPGD 170653Z AUTO 02004KT 10SM FEW038 16/14 A3006 RMK AO2 SLP178 T01610139

Conditions at: KPGD observed 17 November 2017  05:53 UTC
Temperature: 16.1°C (61°F)
Dewpoint: 13.9°C (57°F) [RH = 87%]
Pressure (altimeter): 30.06 inches Hg (1018.0 mb)
[Sea-level pressure: 1018.0 mb]
Winds: from the NNE (30 degrees) at 7 MPH (6 knots; 3.1 m/s)
Visibility: 10 or more miles (16+ km)
Ceiling: at least 12,000 feet AGL
Clouds: scattered clouds at 3500 feet AGL
Present Weather: automated observation with no human augmentation;
there may or may not be significant weather present at this time
KPGD 170553Z AUTO 03006KT 10SM SCT035 16/14 A3006 RMK AO2 SLP180 T01610139 10200 20156 58003

Conditions at: KPGD observed 17 November 2017  04:53 UTC
Temperature: 15.6°C (60°F)
Dewpoint: 13.3°C (56°F) [RH = 86%]
Pressure (altimeter): 30.07 inches Hg (1018.4 mb)
[Sea-level pressure: 1018.3 mb]
Winds: from the NE (50 degrees) at 7 MPH (6 knots; 3.1 m/s)
Visibility: 10 or more miles (16+ km)
Ceiling: at least 12,000 feet AGL
Clouds: sky clear below 12,000 feet AGL
Present Weather: automated observation with no human augmentation;
there may or may not be significant weather present at this time
KPGD 170453Z AUTO 05006KT 10SM CLR 16/13 A3007 RMK AO2 SLP183 T01560133 402720156

Conditions at: KPGD observed 17 November 2017  03:53 UTC
Temperature: 16.7°C (62°F)
Dewpoint: 14.4°C (58°F) [RH = 86%]
Pressure (altimeter): 30.07 inches Hg (1018.4 mb)
[Sea-level pressure: 1018.3 mb]
Winds: from the E (80 degrees) at 6 MPH (5 knots; 2.6 m/s)
Visibility: 10 or more miles (16+ km)
Ceiling: at least 12,000 feet AGL
Clouds: sky clear below 12,000 feet AGL
Present Weather: automated observation with no human augmentation;
there may or may not be significant weather present at this time
KPGD 170353Z AUTO 08005KT 10SM CLR 17/14 A3007 RMK AO2 SLP183 T01670144

Conditions at: KPGD observed 17 November 2017  02:53 UTC
Temperature: 17.2°C (63°F)
Dewpoint: 15.0°C (59°F) [RH = 87%]
Pressure (altimeter): 30.07 inches Hg (1018.4 mb)
[Sea-level pressure: 1018.3 mb]
Winds: from the ENE (70 degrees) at 7 MPH (6 knots; 3.1 m/s)
Visibility: 10 or more miles (16+ km)
Ceiling: at least 12,000 feet AGL
Clouds: sky clear below 12,000 feet AGL
Present Weather: automated observation with no human augmentation;
there may or may not be significant weather present at this time
KPGD 170253Z AUTO 07006KT 10SM CLR 17/15 A3007 RMK AO2 SLP183 T01720150 51016

Conditions at: KPGD observed 17 November 2017  01:53 UTC
Temperature: 17.8°C (64°F)
Dewpoint: 15.6°C (60°F) [RH = 87%]
Pressure (altimeter): 30.06 inches Hg (1018.0 mb)
[Sea-level pressure: 1018.0 mb]
Winds: from the ENE (60 degrees) at 6 MPH (5 knots; 2.6 m/s)
Visibility: 10 or more miles (16+ km)
Ceiling: at least 12,000 feet AGL
Clouds: sky clear below 12,000 feet AGL
Present Weather: automated observation with no human augmentation;
there may or may not be significant weather present at this time
KPGD 170153Z AUTO 06005KT 10SM CLR 18/16 A3006 RMK AO2 SLP180 T01780156

Conditions at: KPGD observed 17 November 2017  00:53 UTC
Temperature: 18.9°C (66°F)
Dewpoint: 16.1°C (61°F) [RH = 84%]
Pressure (altimeter): 30.05 inches Hg (1017.7 mb)
[Sea-level pressure: 1017.4 mb]
Winds: from the NE (50 degrees) at 7 MPH (6 knots; 3.1 m/s)
Visibility: 10 or more miles (16+ km)
Ceiling: at least 12,000 feet AGL
Clouds: sky clear below 12,000 feet AGL
Present Weather: no significant weather observed at this time
KPGD 170053Z 05006KT 10SM CLR 19/16 A3005 RMK AO2 SLP174 T01890161

Conditions at: KPGD observed 16 November 2017  23:53 UTC
Temperature: 20.0°C (68°F)
Dewpoint: 15.0°C (59°F) [RH = 73%]
Pressure (altimeter): 30.03 inches Hg (1017.0 mb)
[Sea-level pressure: 1016.8 mb]
Winds: from the NNE (30 degrees) at 8 MPH (7 knots; 3.6 m/s)
Visibility: 10 or more miles (16+ km)
Ceiling: at least 12,000 feet AGL
Clouds: sky clear below 12,000 feet AGL
Present Weather: no significant weather observed at this time
KPGD 162353Z 03007KT 10SM CLR 20/15 A3003 RMK AO2 SLP168 T02000150 10272 20194 53018

Conditions at: KPGD observed 16 November 2017  22:53 UTC
Temperature: 21.7°C (71°F)
Dewpoint: 14.4°C (58°F) [RH = 63%]
Pressure (altimeter): 30.00 inches Hg (1016.0 mb)
[Sea-level pressure: 1016.0 mb]
Winds: from the NNE (20 degrees) at 6 MPH (5 knots; 2.6 m/s)
Visibility: 10 or more miles (16+ km)
Ceiling: at least 12,000 feet AGL
Clouds: sky clear below 12,000 feet AGL
Present Weather: no significant weather observed at this time
KPGD 162253Z 02005KT 10SM CLR 22/14 A3000 RMK AO2 SLP160 T02170144

Conditions at: KPGD observed 16 November 2017  21:53 UTC
Temperature: 25.6°C (78°F)
Dewpoint: 14.4°C (58°F) [RH = 50%]
Pressure (altimeter): 29.98 inches Hg (1015.3 mb)
[Sea-level pressure: 1015.4 mb]
Winds: from the N (10 degrees) at 5 MPH (4 knots; 2.1 m/s)
Visibility: 10 or more miles (16+ km)
Ceiling: at least 12,000 feet AGL
Clouds: sky clear below 12,000 feet AGL
Present Weather: no significant weather observed at this time
KPGD 162153Z 01004KT 10SM CLR 26/14 A2998 RMK AO2 SLP154 T02560144

Conditions at: KPGD observed 16 November 2017  20:53 UTC
Temperature: 26.7°C (80°F)
Dewpoint: 13.9°C (57°F) [RH = 45%]
Pressure (altimeter): 29.97 inches Hg (1015.0 mb)
[Sea-level pressure: 1015.0 mb]
Winds: variable direction winds at 3 MPH (3 knots; 1.6 m/s)
Visibility: 10 or more miles (16+ km)
Ceiling: at least 12,000 feet AGL
Clouds: few clouds at 5000 feet AGL
Present Weather: no significant weather observed at this time
KPGD 162053Z VRB03KT 10SM FEW050 27/14 A2997 RMK AO2 SLP150 T02670139 55010

Conditions at: KPGD observed 16 November 2017  19:53 UTC
Temperature: 25.6°C (78°F)
Dewpoint: 14.4°C (58°F) [RH = 50%]
Pressure (altimeter): 29.97 inches Hg (1015.0 mb)
[Sea-level pressure: 1014.8 mb]
Winds: from the NNE (30 degrees) at 8 MPH (7 knots; 3.6 m/s)
Visibility: 10 or more miles (16+ km)
Ceiling: at least 12,000 feet AGL
Clouds: scattered clouds at 3800 feet AGL
Present Weather: no significant weather observed at this time
KPGD 161953Z 03007KT 10SM SCT038 26/14 A2997 RMK AO2 SLP148 T02560144

Conditions at: KPGD observed 16 November 2017  18:53 UTC
Temperature: 26.1°C (79°F)
Dewpoint: 15.6°C (60°F) [RH = 52%]
Pressure (altimeter): 29.98 inches Hg (1015.3 mb)
[Sea-level pressure: 1015.2 mb]
Winds: from the NE (40 degrees) at 5 MPH (4 knots; 2.1 m/s)
Visibility: 10 or more miles (16+ km)
Ceiling: at least 12,000 feet AGL
Clouds: sky clear below 12,000 feet AGL
Present Weather: no significant weather observed at this time
KPGD 161853Z 04004KT 10SM CLR 26/16 A2998 RMK AO2 SLP152 T02610156

Conditions at: KPGD observed 16 November 2017  17:53 UTC
Temperature: 25.0°C (77°F)
Dewpoint: 16.1°C (61°F) [RH = 58%]
Pressure (altimeter): 30.00 inches Hg (1016.0 mb)
[Sea-level pressure: 1016.0 mb]
Winds: from the N (350 degrees) at 9 MPH (8 knots; 4.2 m/s)
Visibility: 10 or more miles (16+ km)
Ceiling: at least 12,000 feet AGL
Clouds: sky clear below 12,000 feet AGL
Present Weather: no significant weather observed at this time
KPGD 161753Z 35008KT 10SM CLR 25/16 A3000 RMK AO2 SLP160 T02500161 10256 20167 58024